sensor_id;sensor_type;location;lat;lon;timestamp;temperature;humidity
44627;DHT22;30333;52.192;8.834;2022-11-18T00:00:54;8.10;99.90
44627;DHT22;30333;52.192;8.834;2022-11-18T00:05:52;8.10;99.90
44627;DHT22;30333;52.192;8.834;2022-11-18T00:08:20;8.10;99.90
44627;DHT22;30333;52.192;8.834;2022-11-18T00:10:47;8.00;99.90
44627;DHT22;30333;52.192;8.834;2022-11-18T00:13:14;10.20;99.90
44627;DHT22;30333;52.192;8.834;2022-11-18T00:16:00;7.90;99.90
44627;DHT22;30333;52.192;8.834;2022-11-18T00:20:55;8.00;99.90
44627;DHT22;30333;52.192;8.834;2022-11-18T00:23:27;8.00;99.90
44627;DHT22;30333;52.192;8.834;2022-11-18T00:33:15;7.90;99.90
44627;DHT22;30333;52.192;8.834;2022-11-18T00:35:42;7.80;99.90
44627;DHT22;30333;52.192;8.834;2022-11-18T00:40:37;7.80;99.90
44627;DHT22;30333;52.192;8.834;2022-11-18T00:43:04;7.80;99.90
44627;DHT22;30333;52.192;8.834;2022-11-18T00:47:58;7.80;99.90
44627;DHT22;30333;52.192;8.834;2022-11-18T00:57:48;7.80;99.90
44627;DHT22;30333;52.192;8.834;2022-11-18T01:00:15;7.80;99.90
44627;DHT22;30333;52.192;8.834;2022-11-18T01:07:36;7.80;99.90
44627;DHT22;30333;52.192;8.834;2022-11-18T01:10:03;7.80;99.90
44627;DHT22;30333;52.192;8.834;2022-11-18T01:12:30;7.80;99.90
44627;DHT22;30333;52.192;8.834;2022-11-18T01:15:21;7.80;99.90
44627;DHT22;30333;52.192;8.834;2022-11-18T01:17:48;7.80;99.90
44627;DHT22;30333;52.192;8.834;2022-11-18T01:20:15;7.80;99.90
44627;DHT22;30333;52.192;8.834;2022-11-18T01:32:32;8.10;99.90
44627;DHT22;30333;52.192;8.834;2022-11-18T01:37:26;7.90;99.90
44627;DHT22;30333;52.192;8.834;2022-11-18T01:44:58;7.90;99.90
44627;DHT22;30333;52.192;8.834;2022-11-18T01:47:28;8.00;99.90
44627;DHT22;30333;52.192;8.834;2022-11-18T01:49:58;8.00;99.90
44627;DHT22;30333;52.192;8.834;2022-11-18T01:54:56;8.10;99.90
44627;DHT22;30333;52.192;8.834;2022-11-18T01:57:25;8.10;99.90
44627;DHT22;30333;52.192;8.834;2022-11-18T01:59:55;8.10;99.90
44627;DHT22;30333;52.192;8.834;2022-11-18T02:04:51;8.10;99.90
44627;DHT22;30333;52.192;8.834;2022-11-18T02:07:21;8.10;99.90
44627;DHT22;30333;52.192;8.834;2022-11-18T02:09:49;8.20;99.90
44627;DHT22;30333;52.192;8.834;2022-11-18T02:14:45;8.20;99.90
44627;DHT22;30333;52.192;8.834;2022-11-18T02:17:18;8.30;99.90
44627;DHT22;30333;52.192;8.834;2022-11-18T02:26:03;8.20;99.90
44627;DHT22;30333;52.192;8.834;2022-11-18T02:28:49;8.20;99.90
44627;DHT22;30333;52.192;8.834;2022-11-18T02:31:21;8.20;99.90
44627;DHT22;30333;52.192;8.834;2022-11-18T02:33:53;8.20;99.90
44627;DHT22;30333;52.192;8.834;2022-11-18T02:36:26;8.20;99.90
44627;DHT22;30333;52.192;8.834;2022-11-18T02:38:58;8.10;99.90
44627;DHT22;30333;52.192;8.834;2022-11-18T02:41:29;8.10;99.90
44627;DHT22;30333;52.192;8.834;2022-11-18T02:43:58;8.10;99.90
44627;DHT22;30333;52.192;8.834;2022-11-18T02:46:28;8.10;99.90
44627;DHT22;30333;52.192;8.834;2022-11-18T02:49:00;8.10;99.90
44627;DHT22;30333;52.192;8.834;2022-11-18T02:51:29;8.10;99.90
44627;DHT22;30333;52.192;8.834;2022-11-18T02:54:00;8.10;99.90
44627;DHT22;30333;52.192;8.834;2022-11-18T02:56:29;8.30;99.90
44627;DHT22;30333;52.192;8.834;2022-11-18T02:58:58;8.20;99.90
44627;DHT22;30333;52.192;8.834;2022-11-18T03:01:28;8.20;99.90
44627;DHT22;30333;52.192;8.834;2022-11-18T03:06:27;8.20;99.90
44627;DHT22;30333;52.192;8.834;2022-11-18T03:09:02;8.30;99.90
44627;DHT22;30333;52.192;8.834;2022-11-18T03:11:35;8.30;99.90
44627;DHT22;30333;52.192;8.834;2022-11-18T03:14:13;8.20;99.90
44627;DHT22;30333;52.192;8.834;2022-11-18T03:16:47;8.20;99.90
44627;DHT22;30333;52.192;8.834;2022-11-18T03:19:21;8.70;99.90
44627;DHT22;30333;52.192;8.834;2022-11-18T03:21:56;8.20;99.90
44627;DHT22;30333;52.192;8.834;2022-11-18T03:24:28;8.20;99.90
44627;DHT22;30333;52.192;8.834;2022-11-18T03:27:03;8.20;99.90
44627;DHT22;30333;52.192;8.834;2022-11-18T03:29:37;8.20;99.90
44627;DHT22;30333;52.192;8.834;2022-11-18T03:32:09;8.20;99.90
44627;DHT22;30333;52.192;8.834;2022-11-18T03:34:40;8.30;99.90
44627;DHT22;30333;52.192;8.834;2022-11-18T03:37:11;8.30;99.90
44627;DHT22;30333;52.192;8.834;2022-11-18T03:39:42;8.30;99.90
44627;DHT22;30333;52.192;8.834;2022-11-18T03:42:13;8.30;99.90
44627;DHT22;30333;52.192;8.834;2022-11-18T03:44:46;8.30;99.90
44627;DHT22;30333;52.192;8.834;2022-11-18T03:47:21;8.30;99.90
44627;DHT22;30333;52.192;8.834;2022-11-18T03:49:53;8.20;99.90
44627;DHT22;30333;52.192;8.834;2022-11-18T03:52:24;8.20;99.90
44627;DHT22;30333;52.192;8.834;2022-11-18T03:54:55;8.20;99.90
44627;DHT22;30333;52.192;8.834;2022-11-18T03:57:26;8.10;99.90
44627;DHT22;30333;52.192;8.834;2022-11-18T04:00:01;8.10;99.90
44627;DHT22;30333;52.192;8.834;2022-11-18T04:02:29;8.20;99.90
44627;DHT22;30333;52.192;8.834;2022-11-18T04:04:57;8.10;99.90
44627;DHT22;30333;52.192;8.834;2022-11-18T04:07:31;8.20;99.90
44627;DHT22;30333;52.192;8.834;2022-11-18T04:10:03;8.10;99.90
44627;DHT22;30333;52.192;8.834;2022-11-18T04:12:34;8.10;99.90
44627;DHT22;30333;52.192;8.834;2022-11-18T04:15:05;8.10;99.90
44627;DHT22;30333;52.192;8.834;2022-11-18T04:24:54;8.00;99.90
44627;DHT22;30333;52.192;8.834;2022-11-18T04:27:21;8.00;99.90
44627;DHT22;30333;52.192;8.834;2022-11-18T04:29:47;8.00;99.90
44627;DHT22;30333;52.192;8.834;2022-11-18T04:32:15;8.00;99.90
44627;DHT22;30333;52.192;8.834;2022-11-18T04:34:42;8.10;99.90
44627;DHT22;30333;52.192;8.834;2022-11-18T04:44:32;8.10;99.90
44627;DHT22;30333;52.192;8.834;2022-11-18T04:47:01;8.00;99.90
44627;DHT22;30333;52.192;8.834;2022-11-18T04:49:30;8.00;99.90
44627;DHT22;30333;52.192;8.834;2022-11-18T04:54:25;8.10;99.90
44627;DHT22;30333;52.192;8.834;2022-11-18T04:56:53;8.00;99.90
44627;DHT22;30333;52.192;8.834;2022-11-18T04:59:22;8.00;99.90
44627;DHT22;30333;52.192;8.834;2022-11-18T05:01:50;8.00;99.90
44627;DHT22;30333;52.192;8.834;2022-11-18T05:04:18;7.90;99.90
44627;DHT22;30333;52.192;8.834;2022-11-18T05:06:47;7.90;99.90
44627;DHT22;30333;52.192;8.834;2022-11-18T05:09:14;8.00;99.90
44627;DHT22;30333;52.192;8.834;2022-11-18T05:14:28;7.90;99.90
44627;DHT22;30333;52.192;8.834;2022-11-18T05:16:57;7.90;99.90
44627;DHT22;30333;52.192;8.834;2022-11-18T05:19:24;7.80;99.90
44627;DHT22;30333;52.192;8.834;2022-11-18T05:21:52;7.80;99.90
44627;DHT22;30333;52.192;8.834;2022-11-18T05:24:19;7.70;99.90
44627;DHT22;30333;52.192;8.834;2022-11-18T05:26:47;7.60;99.90
44627;DHT22;30333;52.192;8.834;2022-11-18T05:29:14;7.60;99.90
44627;DHT22;30333;52.192;8.834;2022-11-18T05:31:41;7.60;99.90
44627;DHT22;30333;52.192;8.834;2022-11-18T05:36:35;7.60;99.90
44627;DHT22;30333;52.192;8.834;2022-11-18T05:39:03;7.70;99.90
44627;DHT22;30333;52.192;8.834;2022-11-18T05:41:30;7.60;99.90
44627;DHT22;30333;52.192;8.834;2022-11-18T05:44:15;7.50;99.90
44627;DHT22;30333;52.192;8.834;2022-11-18T05:46:42;7.50;99.90
44627;DHT22;30333;52.192;8.834;2022-11-18T05:51:36;7.50;99.90
44627;DHT22;30333;52.192;8.834;2022-11-18T05:54:07;7.50;99.90
44627;DHT22;30333;52.192;8.834;2022-11-18T05:56:36;7.50;99.90
44627;DHT22;30333;52.192;8.834;2022-11-18T05:59:04;7.50;99.90
44627;DHT22;30333;52.192;8.834;2022-11-18T06:01:33;7.50;99.90
44627;DHT22;30333;52.192;8.834;2022-11-18T06:04:02;7.50;99.90
44627;DHT22;30333;52.192;8.834;2022-11-18T06:06:30;7.50;99.90
44627;DHT22;30333;52.192;8.834;2022-11-18T06:09:00;7.50;99.90
44627;DHT22;30333;52.192;8.834;2022-11-18T06:11:29;7.50;99.90
44627;DHT22;30333;52.192;8.834;2022-11-18T06:14:02;7.50;99.90
44627;DHT22;30333;52.192;8.834;2022-11-18T06:16:31;7.50;99.90
44627;DHT22;30333;52.192;8.834;2022-11-18T06:21:34;7.50;99.90
44627;DHT22;30333;52.192;8.834;2022-11-18T06:24:01;7.50;99.90
44627;DHT22;30333;52.192;8.834;2022-11-18T06:26:29;7.50;99.90
44627;DHT22;30333;52.192;8.834;2022-11-18T06:33:51;7.60;99.90
44627;DHT22;30333;52.192;8.834;2022-11-18T06:36:18;7.60;99.90
44627;DHT22;30333;52.192;8.834;2022-11-18T06:38:44;7.60;99.90
44627;DHT22;30333;52.192;8.834;2022-11-18T06:41:11;7.70;99.90
44627;DHT22;30333;52.192;8.834;2022-11-18T06:43:39;7.60;99.90
44627;DHT22;30333;52.192;8.834;2022-11-18T06:46:11;7.50;99.90
44627;DHT22;30333;52.192;8.834;2022-11-18T06:56:21;7.40;99.90
44627;DHT22;30333;52.192;8.834;2022-11-18T06:58:54;7.40;99.90
44627;DHT22;30333;52.192;8.834;2022-11-18T07:01:23;7.40;99.90
44627;DHT22;30333;52.192;8.834;2022-11-18T07:06:19;7.30;99.90
44627;DHT22;30333;52.192;8.834;2022-11-18T07:08:47;7.30;99.90
44627;DHT22;30333;52.192;8.834;2022-11-18T07:11:17;7.40;99.90
44627;DHT22;30333;52.192;8.834;2022-11-18T07:13:44;7.30;99.90
44627;DHT22;30333;52.192;8.834;2022-11-18T07:16:15;7.30;99.90
44627;DHT22;30333;52.192;8.834;2022-11-18T07:18:43;7.30;99.90
44627;DHT22;30333;52.192;8.834;2022-11-18T07:21:11;7.30;99.90
44627;DHT22;30333;52.192;8.834;2022-11-18T07:23:39;7.70;99.90
44627;DHT22;30333;52.192;8.834;2022-11-18T07:28:33;7.40;99.90
44627;DHT22;30333;52.192;8.834;2022-11-18T07:31:01;7.30;99.90
44627;DHT22;30333;52.192;8.834;2022-11-18T07:33:31;7.30;99.90
44627;DHT22;30333;52.192;8.834;2022-11-18T07:36:03;7.40;99.90
44627;DHT22;30333;52.192;8.834;2022-11-18T07:41:02;7.20;99.90
44627;DHT22;30333;52.192;8.834;2022-11-18T07:43:29;7.20;99.90
44627;DHT22;30333;52.192;8.834;2022-11-18T07:45:56;7.20;99.90
44627;DHT22;30333;52.192;8.834;2022-11-18T07:48:23;7.20;99.90
44627;DHT22;30333;52.192;8.834;2022-11-18T07:50:51;7.20;99.90
44627;DHT22;30333;52.192;8.834;2022-11-18T07:53:18;7.30;99.90
44627;DHT22;30333;52.192;8.834;2022-11-18T08:00:39;7.40;99.90
44627;DHT22;30333;52.192;8.834;2022-11-18T08:03:06;7.40;99.90
44627;DHT22;30333;52.192;8.834;2022-11-18T08:08:05;7.50;99.90
44627;DHT22;30333;52.192;8.834;2022-11-18T08:15:26;7.60;99.90
44627;DHT22;30333;52.192;8.834;2022-11-18T08:20:20;7.50;99.90
44627;DHT22;30333;52.192;8.834;2022-11-18T08:22:48;7.50;99.90
44627;DHT22;30333;52.192;8.834;2022-11-18T08:25:16;7.40;99.90
44627;DHT22;30333;52.192;8.834;2022-11-18T08:27:43;7.40;99.90
44627;DHT22;30333;52.192;8.834;2022-11-18T08:30:11;7.40;99.90
44627;DHT22;30333;52.192;8.834;2022-11-18T08:32:38;7.40;99.90
44627;DHT22;30333;52.192;8.834;2022-11-18T08:35:05;7.30;99.90
44627;DHT22;30333;52.192;8.834;2022-11-18T08:37:37;7.30;99.90
44627;DHT22;30333;52.192;8.834;2022-11-18T08:40:04;7.30;99.90
44627;DHT22;30333;52.192;8.834;2022-11-18T08:42:33;7.40;99.90
44627;DHT22;30333;52.192;8.834;2022-11-18T08:45:00;7.30;99.90
44627;DHT22;30333;52.192;8.834;2022-11-18T08:52:21;7.30;99.90
44627;DHT22;30333;52.192;8.834;2022-11-18T08:57:15;7.40;99.90
44627;DHT22;30333;52.192;8.834;2022-11-18T08:59:44;7.40;99.90
44627;DHT22;30333;52.192;8.834;2022-11-18T09:02:12;8.60;99.90
44627;DHT22;30333;52.192;8.834;2022-11-18T09:04:39;8.90;99.90
44627;DHT22;30333;52.192;8.834;2022-11-18T09:12:00;7.40;99.90
44627;DHT22;30333;52.192;8.834;2022-11-18T09:14:27;7.30;99.90
44627;DHT22;30333;52.192;8.834;2022-11-18T09:17:15;7.40;99.90
44627;DHT22;30333;52.192;8.834;2022-11-18T09:22:30;7.40;99.90
44627;DHT22;30333;52.192;8.834;2022-11-18T09:24:57;7.40;99.90
44627;DHT22;30333;52.192;8.834;2022-11-18T09:27:24;7.50;99.90
44627;DHT22;30333;52.192;8.834;2022-11-18T09:32:19;7.50;99.90
44627;DHT22;30333;52.192;8.834;2022-11-18T09:42:23;7.50;99.90
44627;DHT22;30333;52.192;8.834;2022-11-18T09:45:07;7.50;99.90
44627;DHT22;30333;52.192;8.834;2022-11-18T09:47:43;7.30;99.90
44627;DHT22;30333;52.192;8.834;2022-11-18T09:50:12;7.30;99.90
44627;DHT22;30333;52.192;8.834;2022-11-18T09:53:05;7.30;99.90
44627;DHT22;30333;52.192;8.834;2022-11-18T09:55:36;7.20;99.90
44627;DHT22;30333;52.192;8.834;2022-11-18T09:58:05;7.20;99.90
44627;DHT22;30333;52.192;8.834;2022-11-18T10:00:33;7.20;99.90
44627;DHT22;30333;52.192;8.834;2022-11-18T10:03:02;7.20;99.90
44627;DHT22;30333;52.192;8.834;2022-11-18T10:05:33;7.20;99.90
44627;DHT22;30333;52.192;8.834;2022-11-18T10:08:16;6.80;99.90
44627;DHT22;30333;52.192;8.834;2022-11-18T10:10:53;7.00;99.90
44627;DHT22;30333;52.192;8.834;2022-11-18T10:13:31;7.00;99.90
44627;DHT22;30333;52.192;8.834;2022-11-18T10:16:16;6.90;99.90
44627;DHT22;30333;52.192;8.834;2022-11-18T10:18:54;6.80;99.90
44627;DHT22;30333;52.192;8.834;2022-11-18T10:21:36;8.30;99.90
44627;DHT22;30333;52.192;8.834;2022-11-18T10:24:11;6.50;99.90
44627;DHT22;30333;52.192;8.834;2022-11-18T10:31:37;6.50;99.90
44627;DHT22;30333;52.192;8.834;2022-11-18T10:34:09;6.50;99.90
44627;DHT22;30333;52.192;8.834;2022-11-18T10:39:07;6.50;99.90
44627;DHT22;30333;52.192;8.834;2022-11-18T10:41:40;6.50;99.90
44627;DHT22;30333;52.192;8.834;2022-11-18T10:47:18;6.50;99.90
44627;DHT22;30333;52.192;8.834;2022-11-18T10:49:47;6.50;99.90
44627;DHT22;30333;52.192;8.834;2022-11-18T10:54:41;6.60;99.90
44627;DHT22;30333;52.192;8.834;2022-11-18T10:57:14;6.60;99.90
44627;DHT22;30333;52.192;8.834;2022-11-18T10:59:46;6.50;99.90
44627;DHT22;30333;52.192;8.834;2022-11-18T11:02:16;6.50;99.90
44627;DHT22;30333;52.192;8.834;2022-11-18T11:04:43;6.50;99.90
44627;DHT22;30333;52.192;8.834;2022-11-18T11:07:23;6.50;99.90
44627;DHT22;30333;52.192;8.834;2022-11-18T11:10:06;6.50;99.90
44627;DHT22;30333;52.192;8.834;2022-11-18T11:12:47;6.50;99.90
44627;DHT22;30333;52.192;8.834;2022-11-18T11:15:18;6.40;99.90
44627;DHT22;30333;52.192;8.834;2022-11-18T11:17:50;6.60;99.90
44627;DHT22;30333;52.192;8.834;2022-11-18T11:23:09;6.50;99.90
44627;DHT22;30333;52.192;8.834;2022-11-18T11:25:41;6.60;99.90
44627;DHT22;30333;52.192;8.834;2022-11-18T11:28:32;6.50;99.90
44627;DHT22;30333;52.192;8.834;2022-11-18T11:31:09;7.30;99.90
44627;DHT22;30333;52.192;8.834;2022-11-18T11:33:42;6.40;99.90
44627;DHT22;30333;52.192;8.834;2022-11-18T11:39:22;6.40;99.90
44627;DHT22;30333;52.192;8.834;2022-11-18T11:41:55;6.40;99.90
44627;DHT22;30333;52.192;8.834;2022-11-18T11:44:35;6.30;99.90
44627;DHT22;30333;52.192;8.834;2022-11-18T11:47:15;6.30;99.90
44627;DHT22;30333;52.192;8.834;2022-11-18T11:50:12;6.20;99.90
44627;DHT22;30333;52.192;8.834;2022-11-18T11:52:47;6.00;99.90
44627;DHT22;30333;52.192;8.834;2022-11-18T11:55:21;5.80;99.90
44627;DHT22;30333;52.192;8.834;2022-11-18T11:58:06;5.80;99.90
44627;DHT22;30333;52.192;8.834;2022-11-18T12:00:41;5.80;99.90
44627;DHT22;30333;52.192;8.834;2022-11-18T12:03:33;5.80;99.90
44627;DHT22;30333;52.192;8.834;2022-11-18T12:06:07;5.90;99.90
44627;DHT22;30333;52.192;8.834;2022-11-18T12:08:35;5.80;99.90
44627;DHT22;30333;52.192;8.834;2022-11-18T12:11:08;5.80;99.90
44627;DHT22;30333;52.192;8.834;2022-11-18T12:13:42;5.80;99.90
44627;DHT22;30333;52.192;8.834;2022-11-18T12:16:23;5.80;99.90
44627;DHT22;30333;52.192;8.834;2022-11-18T12:18:56;5.70;99.90
44627;DHT22;30333;52.192;8.834;2022-11-18T12:21:55;5.80;99.90
44627;DHT22;30333;52.192;8.834;2022-11-18T12:24:32;5.80;99.90
44627;DHT22;30333;52.192;8.834;2022-11-18T12:27:02;5.70;99.90
44627;DHT22;30333;52.192;8.834;2022-11-18T12:29:33;7.40;99.90
44627;DHT22;30333;52.192;8.834;2022-11-18T12:32:02;5.60;99.90
44627;DHT22;30333;52.192;8.834;2022-11-18T12:34:37;6.80;99.90
44627;DHT22;30333;52.192;8.834;2022-11-18T12:37:37;5.90;99.90
44627;DHT22;30333;52.192;8.834;2022-11-18T12:40:06;5.90;99.90
44627;DHT22;30333;52.192;8.834;2022-11-18T12:42:41;5.90;99.90
44627;DHT22;30333;52.192;8.834;2022-11-18T12:45:59;5.90;99.90
44627;DHT22;30333;52.192;8.834;2022-11-18T12:48:32;6.00;99.90
44627;DHT22;30333;52.192;8.834;2022-11-18T12:51:01;5.90;99.90
44627;DHT22;30333;52.192;8.834;2022-11-18T12:53:34;5.90;99.90
44627;DHT22;30333;52.192;8.834;2022-11-18T12:56:10;6.50;99.90
44627;DHT22;30333;52.192;8.834;2022-11-18T12:58:43;5.90;99.90
44627;DHT22;30333;52.192;8.834;2022-11-18T13:01:12;5.90;99.90
44627;DHT22;30333;52.192;8.834;2022-11-18T13:03:40;7.90;99.90
44627;DHT22;30333;52.192;8.834;2022-11-18T13:06:16;5.90;99.90
44627;DHT22;30333;52.192;8.834;2022-11-18T13:08:50;5.70;99.90
44627;DHT22;30333;52.192;8.834;2022-11-18T13:14:13;5.70;99.90
44627;DHT22;30333;52.192;8.834;2022-11-18T13:16:59;5.60;99.90
44627;DHT22;30333;52.192;8.834;2022-11-18T13:19:53;5.60;99.90
44627;DHT22;30333;52.192;8.834;2022-11-18T13:22:22;5.60;99.90
44627;DHT22;30333;52.192;8.834;2022-11-18T13:25:22;5.70;99.90
44627;DHT22;30333;52.192;8.834;2022-11-18T13:27:54;5.60;99.90
44627;DHT22;30333;52.192;8.834;2022-11-18T13:30:25;5.60;99.90
44627;DHT22;30333;52.192;8.834;2022-11-18T13:32:56;5.70;99.90
44627;DHT22;30333;52.192;8.834;2022-11-18T13:35:24;5.70;99.90
44627;DHT22;30333;52.192;8.834;2022-11-18T13:37:54;5.70;99.90
44627;DHT22;30333;52.192;8.834;2022-11-18T13:40:24;5.60;99.90
44627;DHT22;30333;52.192;8.834;2022-11-18T13:42:51;5.60;99.90
44627;DHT22;30333;52.192;8.834;2022-11-18T13:47:50;5.50;99.90
44627;DHT22;30333;52.192;8.834;2022-11-18T13:50:22;5.50;99.90
44627;DHT22;30333;52.192;8.834;2022-11-18T13:53:00;5.50;99.90
44627;DHT22;30333;52.192;8.834;2022-11-18T13:55:31;5.60;99.90
44627;DHT22;30333;52.192;8.834;2022-11-18T13:58:02;7.70;99.90
44627;DHT22;30333;52.192;8.834;2022-11-18T14:00:31;5.60;99.90
44627;DHT22;30333;52.192;8.834;2022-11-18T14:03:05;5.50;99.90
44627;DHT22;30333;52.192;8.834;2022-11-18T14:05:40;5.50;99.90
44627;DHT22;30333;52.192;8.834;2022-11-18T14:08:24;5.50;99.90
44627;DHT22;30333;52.192;8.834;2022-11-18T14:13:23;5.40;99.90
44627;DHT22;30333;52.192;8.834;2022-11-18T14:15:52;5.30;99.90
44627;DHT22;30333;52.192;8.834;2022-11-18T14:18:28;5.30;99.90
44627;DHT22;30333;52.192;8.834;2022-11-18T14:23:28;5.20;99.90
44627;DHT22;30333;52.192;8.834;2022-11-18T14:25:56;5.20;99.90
44627;DHT22;30333;52.192;8.834;2022-11-18T14:28:25;5.30;99.90
44627;DHT22;30333;52.192;8.834;2022-11-18T14:30:58;5.30;99.90
44627;DHT22;30333;52.192;8.834;2022-11-18T14:33:27;5.20;99.90
44627;DHT22;30333;52.192;8.834;2022-11-18T14:35:57;5.10;99.90
44627;DHT22;30333;52.192;8.834;2022-11-18T14:38:29;5.10;99.90
44627;DHT22;30333;52.192;8.834;2022-11-18T14:41:18;5.20;99.90
44627;DHT22;30333;52.192;8.834;2022-11-18T14:46:47;5.10;99.90
44627;DHT22;30333;52.192;8.834;2022-11-18T14:49:18;5.00;99.90
44627;DHT22;30333;52.192;8.834;2022-11-18T14:51:48;4.90;99.90
44627;DHT22;30333;52.192;8.834;2022-11-18T14:54:17;4.90;99.90
44627;DHT22;30333;52.192;8.834;2022-11-18T14:56:54;4.80;99.90
44627;DHT22;30333;52.192;8.834;2022-11-18T14:59:21;4.80;99.90
44627;DHT22;30333;52.192;8.834;2022-11-18T15:01:48;4.80;99.90
44627;DHT22;30333;52.192;8.834;2022-11-18T15:04:16;4.70;99.90
44627;DHT22;30333;52.192;8.834;2022-11-18T15:06:45;4.80;99.90
44627;DHT22;30333;52.192;8.834;2022-11-18T15:09:12;4.80;99.90
44627;DHT22;30333;52.192;8.834;2022-11-18T15:11:39;4.70;99.90
44627;DHT22;30333;52.192;8.834;2022-11-18T15:14:06;4.80;99.90
44627;DHT22;30333;52.192;8.834;2022-11-18T15:16:34;4.70;99.90
44627;DHT22;30333;52.192;8.834;2022-11-18T15:19:03;4.60;99.90
44627;DHT22;30333;52.192;8.834;2022-11-18T15:21:32;4.60;99.90
44627;DHT22;30333;52.192;8.834;2022-11-18T15:23:59;4.60;99.90
44627;DHT22;30333;52.192;8.834;2022-11-18T15:26:28;4.60;99.90
44627;DHT22;30333;52.192;8.834;2022-11-18T15:28:56;4.60;99.90
44627;DHT22;30333;52.192;8.834;2022-11-18T15:31:24;5.90;99.90
44627;DHT22;30333;52.192;8.834;2022-11-18T15:33:51;4.60;99.90
44627;DHT22;30333;52.192;8.834;2022-11-18T15:36:20;4.50;99.90
44627;DHT22;30333;52.192;8.834;2022-11-18T15:38:49;6.00;99.90
44627;DHT22;30333;52.192;8.834;2022-11-18T15:41:17;4.40;99.90
44627;DHT22;30333;52.192;8.834;2022-11-18T15:43:44;4.30;99.90
44627;DHT22;30333;52.192;8.834;2022-11-18T15:48:39;4.40;99.90
44627;DHT22;30333;52.192;8.834;2022-11-18T15:51:06;4.30;99.90
44627;DHT22;30333;52.192;8.834;2022-11-18T15:53:38;4.20;99.90
44627;DHT22;30333;52.192;8.834;2022-11-18T15:56:24;4.20;99.90
44627;DHT22;30333;52.192;8.834;2022-11-18T15:58:52;4.20;99.90
44627;DHT22;30333;52.192;8.834;2022-11-18T16:01:23;4.20;99.90
44627;DHT22;30333;52.192;8.834;2022-11-18T16:03:50;4.20;99.90
44627;DHT22;30333;52.192;8.834;2022-11-18T16:11:13;4.10;99.90
44627;DHT22;30333;52.192;8.834;2022-11-18T16:14:00;4.00;99.90
44627;DHT22;30333;52.192;8.834;2022-11-18T16:16:28;4.00;99.90
44627;DHT22;30333;52.192;8.834;2022-11-18T16:18:56;3.90;99.90
44627;DHT22;30333;52.192;8.834;2022-11-18T16:21:24;3.80;99.90
44627;DHT22;30333;52.192;8.834;2022-11-18T16:23:54;3.80;99.90
44627;DHT22;30333;52.192;8.834;2022-11-18T16:31:17;3.70;99.90
44627;DHT22;30333;52.192;8.834;2022-11-18T16:34:06;3.80;99.90
44627;DHT22;30333;52.192;8.834;2022-11-18T16:39:03;3.70;99.90
44627;DHT22;30333;52.192;8.834;2022-11-18T16:41:30;3.70;99.90
44627;DHT22;30333;52.192;8.834;2022-11-18T16:43:57;3.70;99.90
44627;DHT22;30333;52.192;8.834;2022-11-18T16:46:26;3.80;99.90
44627;DHT22;30333;52.192;8.834;2022-11-18T16:48:54;3.60;99.90
44627;DHT22;30333;52.192;8.834;2022-11-18T16:51:25;3.60;99.90
44627;DHT22;30333;52.192;8.834;2022-11-18T16:53:53;3.50;99.90
44627;DHT22;30333;52.192;8.834;2022-11-18T16:56:22;3.40;99.90
44627;DHT22;30333;52.192;8.834;2022-11-18T17:01:16;3.50;99.90
44627;DHT22;30333;52.192;8.834;2022-11-18T17:03:50;3.40;99.90
44627;DHT22;30333;52.192;8.834;2022-11-18T17:06:17;3.40;99.90
44627;DHT22;30333;52.192;8.834;2022-11-18T17:11:12;3.40;99.90
44627;DHT22;30333;52.192;8.834;2022-11-18T17:13:40;3.40;99.90
44627;DHT22;30333;52.192;8.834;2022-11-18T17:16:12;3.30;99.90
44627;DHT22;30333;52.192;8.834;2022-11-18T17:18:39;3.30;99.90
44627;DHT22;30333;52.192;8.834;2022-11-18T17:21:09;3.20;99.90
44627;DHT22;30333;52.192;8.834;2022-11-18T17:23:37;3.20;99.90
44627;DHT22;30333;52.192;8.834;2022-11-18T17:26:05;3.20;99.90
44627;DHT22;30333;52.192;8.834;2022-11-18T17:28:34;3.20;99.90
44627;DHT22;30333;52.192;8.834;2022-11-18T17:31:04;3.20;99.90
44627;DHT22;30333;52.192;8.834;2022-11-18T17:35:59;3.80;99.90
44627;DHT22;30333;52.192;8.834;2022-11-18T17:38:28;3.10;99.90
44627;DHT22;30333;52.192;8.834;2022-11-18T17:40:56;3.10;99.90
44627;DHT22;30333;52.192;8.834;2022-11-18T17:45:52;3.10;99.90
44627;DHT22;30333;52.192;8.834;2022-11-18T17:48:20;3.20;99.90
44627;DHT22;30333;52.192;8.834;2022-11-18T17:53:15;3.20;99.90
44627;DHT22;30333;52.192;8.834;2022-11-18T17:55:43;3.20;99.90
44627;DHT22;30333;52.192;8.834;2022-11-18T17:58:11;3.20;99.90
44627;DHT22;30333;52.192;8.834;2022-11-18T18:08:00;3.20;99.90
44627;DHT22;30333;52.192;8.834;2022-11-18T18:10:27;3.10;99.90
44627;DHT22;30333;52.192;8.834;2022-11-18T18:12:55;3.10;99.90
44627;DHT22;30333;52.192;8.834;2022-11-18T18:23:02;2.90;99.90
44627;DHT22;30333;52.192;8.834;2022-11-18T18:27:57;2.90;99.90
44627;DHT22;30333;52.192;8.834;2022-11-18T18:32:51;2.90;99.90
44627;DHT22;30333;52.192;8.834;2022-11-18T18:35:18;2.80;99.90
44627;DHT22;30333;52.192;8.834;2022-11-18T18:40:12;2.80;99.90
44627;DHT22;30333;52.192;8.834;2022-11-18T18:45:09;2.90;99.90
44627;DHT22;30333;52.192;8.834;2022-11-18T18:47:54;2.80;99.90
44627;DHT22;30333;52.192;8.834;2022-11-18T18:50:21;2.80;99.90
44627;DHT22;30333;52.192;8.834;2022-11-18T18:52:55;2.80;99.90
44627;DHT22;30333;52.192;8.834;2022-11-18T18:55:22;2.80;99.90
44627;DHT22;30333;52.192;8.834;2022-11-18T19:00:18;2.80;99.90
44627;DHT22;30333;52.192;8.834;2022-11-18T19:05:12;2.80;99.90
44627;DHT22;30333;52.192;8.834;2022-11-18T19:07:40;2.70;99.90
44627;DHT22;30333;52.192;8.834;2022-11-18T19:10:08;2.70;99.90
44627;DHT22;30333;52.192;8.834;2022-11-18T19:15:09;2.60;99.90
44627;DHT22;30333;52.192;8.834;2022-11-18T19:17:38;2.70;99.90
44627;DHT22;30333;52.192;8.834;2022-11-18T19:20:06;2.70;99.90
44627;DHT22;30333;52.192;8.834;2022-11-18T19:27:48;2.70;99.90
44627;DHT22;30333;52.192;8.834;2022-11-18T19:30:16;2.60;99.90
44627;DHT22;30333;52.192;8.834;2022-11-18T19:32:44;2.60;99.90
44627;DHT22;30333;52.192;8.834;2022-11-18T19:37:38;2.70;99.90
44627;DHT22;30333;52.192;8.834;2022-11-18T19:40:06;4.20;99.90
44627;DHT22;30333;52.192;8.834;2022-11-18T19:42:36;2.70;99.90
44627;DHT22;30333;52.192;8.834;2022-11-18T19:45:04;2.60;99.90
44627;DHT22;30333;52.192;8.834;2022-11-18T19:49:59;2.50;99.90
44627;DHT22;30333;52.192;8.834;2022-11-18T20:02:18;2.40;99.90
44627;DHT22;30333;52.192;8.834;2022-11-18T20:07:33;2.40;99.90
44627;DHT22;30333;52.192;8.834;2022-11-18T20:17:22;2.50;99.90
44627;DHT22;30333;52.192;8.834;2022-11-18T20:19:49;2.40;99.90
44627;DHT22;30333;52.192;8.834;2022-11-18T20:22:16;2.50;99.90
44627;DHT22;30333;52.192;8.834;2022-11-18T20:24:44;2.40;99.90
44627;DHT22;30333;52.192;8.834;2022-11-18T20:29:41;2.40;99.90
44627;DHT22;30333;52.192;8.834;2022-11-18T20:34:35;2.40;99.90
44627;DHT22;30333;52.192;8.834;2022-11-18T20:37:05;2.30;99.90
44627;DHT22;30333;52.192;8.834;2022-11-18T20:42:00;2.30;99.90
44627;DHT22;30333;52.192;8.834;2022-11-18T22:25:35;2.20;99.90
44627;DHT22;30333;52.192;8.834;2022-11-18T22:37:52;2.10;99.90